Frametown, West Virginia
Current Conditions -  °F | °C
As of 4:15 AM on Monday 20 Oct 2014 (Local Time) from KW22 Reporting Station
Clear Clear  
Wind Chill: 37°   Ceiling: Unl
Heat Index: 37°   Visibility: 10mi
Dew Point: 36°   Wind: 0mph
Humidity: 93%   Direction: NA
Pressure: 30.06"   Gusts: NA
Location:  38.64°N, 80.86°W
Report Text: KW22 200815Z AUTO 00000KT 10SM CLR 03/02 A3006 RMK AO2
Loading
Personal Weather Stations






























Interactive Weather Map
Tropical Storm Tracking
New forecast layout! Learn more

10-Day Weather Forecast

Advertisements
Track Severe Weather on mobile